Time;durP1;ratioP1;P1;durP2;ratioP2;P2;SDS_P1;SDS_P2;PMS_P1;PMS_P2;Temp;Humidity;BMP_temperature;BMP_pressure;BME280_temperature;BME280_humidity;BME280_pressure;Samples;Min_cycle;Max_cycle;Signal;HPM_P1;HPM_P2
2023/04/01 00:00:30;;;;;;;;;;;20.00;99.90;;;;;;5078518;28;20336;-67
2023/04/01 00:02:57;;;;;;;;;;;20.10;99.90;;;;;;5101209;28;19950;-68
2023/04/01 00:05:26;;;;;;;;;;;20.10;99.90;;;;;;5098095;28;19908;-66
2023/04/01 00:07:53;;;;;;;;;;;20.00;99.90;;;;;;5079936;28;20298;-64
2023/04/01 00:10:19;;;;;;;;;;;19.90;99.90;;;;;;5093915;28;19986;-69
2023/04/01 00:12:46;;;;;;;;;;;19.60;99.90;;;;;;5100542;28;19972;-74
2023/04/01 00:15:13;;;;;;;;;;;19.50;99.90;;;;;;5099161;28;19952;-69
2023/04/01 00:17:39;;;;;;;;;;;19.40;99.90;;;;;;5099302;28;19926;-75
2023/04/01 00:20:07;;;;;;;;;;;19.30;99.90;;;;;;5095394;28;19915;-68
2023/04/01 00:22:34;;;;;;;;;;;19.20;99.90;;;;;;5104070;28;20018;-67
2023/04/01 00:25:01;;;;;;;;;;;19.00;99.90;;;;;;5109097;28;20493;-69
2023/04/01 00:27:28;;;;;;;;;;;19.00;99.90;;;;;;5107155;28;19930;-68
2023/04/01 00:29:55;;;;;;;;;;;18.90;99.90;;;;;;5101860;28;19939;-75
2023/04/01 00:32:21;;;;;;;;;;;19.00;99.90;;;;;;5096841;28;20339;-73
2023/04/01 00:34:52;;;;;;;;;;;19.00;99.90;;;;;;5095239;28;19946;-70
2023/04/01 00:37:20;;;;;;;;;;;19.00;99.90;;;;;;5099323;28;20026;-73
2023/04/01 00:39:47;;;;;;;;;;;19.00;99.90;;;;;;5096478;28;19996;-67
2023/04/01 00:42:14;;;;;;;;;;;19.10;99.90;;;;;;5088259;28;19982;-76
2023/04/01 00:44:41;;;;;;;;;;;19.10;99.90;;;;;;5095107;28;20387;-74
2023/04/01 00:47:12;;;;;;;;;;;19.10;99.90;;;;;;5090155;28;20211;-74
2023/04/01 00:49:40;;;;;;;;;;;19.20;99.90;;;;;;5080859;28;20443;-74
2023/04/01 00:52:08;;;;;;;;;;;19.10;99.90;;;;;;5081915;28;19914;-74
2023/04/01 00:54:37;;;;;;;;;;;19.20;99.90;;;;;;5104204;28;19943;-70
2023/04/01 00:57:10;;;;;;;;;;;19.30;99.90;;;;;;5099819;28;20007;-66
2023/04/01 00:59:39;;;;;;;;;;;19.30;99.90;;;;;;5098290;28;19916;-67
2023/04/01 01:02:07;;;;;;;;;;;19.30;99.90;;;;;;5097487;28;20030;-68
2023/04/01 01:04:35;;;;;;;;;;;19.20;99.90;;;;;;5079472;28;19940;-72
2023/04/01 01:07:12;;;;;;;;;;;19.00;99.90;;;;;;5086772;28;19916;-73
2023/04/01 01:09:39;;;;;;;;;;;18.90;99.90;;;;;;5097548;28;19957;-72
2023/04/01 01:12:11;;;;;;;;;;;18.90;99.90;;;;;;5100250;28;19965;-71
2023/04/01 01:14:41;;;;;;;;;;;18.90;99.90;;;;;;5094985;28;19912;-73
2023/04/01 01:17:27;;;;;;;;;;;18.90;99.90;;;;;;5097147;28;20284;-74
2023/04/01 01:20:11;;;;;;;;;;;18.80;99.90;;;;;;5060796;28;19920;-72
2023/04/01 01:22:38;;;;;;;;;;;18.80;99.90;;;;;;5088451;28;19923;-69
2023/04/01 01:25:10;;;;;;;;;;;18.70;99.90;;;;;;5099089;28;19994;-78
2023/04/01 01:27:40;;;;;;;;;;;18.80;99.90;;;;;;5081464;28;19928;-72
2023/04/01 01:30:16;;;;;;;;;;;18.70;99.90;;;;;;5088039;28;20013;-68
2023/04/01 01:32:48;;;;;;;;;;;18.80;99.90;;;;;;5095183;28;19919;-70
2023/04/01 01:35:15;;;;;;;;;;;19.00;99.90;;;;;;5099503;28;20302;-76
2023/04/01 01:37:43;;;;;;;;;;;19.20;99.90;;;;;;5094529;28;19912;-73
2023/04/01 01:40:11;;;;;;;;;;;19.40;99.90;;;;;;5088088;28;20273;-74
2023/04/01 01:42:40;;;;;;;;;;;19.40;99.90;;;;;;5078581;28;19947;-71
2023/04/01 01:45:07;;;;;;;;;;;19.40;99.90;;;;;;5094669;28;20322;-73
2023/04/01 01:47:35;;;;;;;;;;;19.50;99.90;;;;;;5092662;28;19952;-73
2023/04/01 01:50:03;;;;;;;;;;;19.40;99.90;;;;;;5089475;28;19912;-73
2023/04/01 01:52:30;;;;;;;;;;;19.40;99.90;;;;;;5077259;28;19999;-72
2023/04/01 01:54:57;;;;;;;;;;;19.30;99.90;;;;;;5093037;28;20068;-68
2023/04/01 01:57:26;;;;;;;;;;;19.30;99.90;;;;;;5092928;28;19998;-70
2023/04/01 01:59:54;;;;;;;;;;;19.30;99.90;;;;;;5095492;28;19919;-70
2023/04/01 02:02:23;;;;;;;;;;;19.40;99.90;;;;;;5086516;28;19927;-73
2023/04/01 02:04:50;;;;;;;;;;;19.50;99.90;;;;;;5094369;28;19912;-74
2023/04/01 02:07:23;;;;;;;;;;;19.50;99.90;;;;;;5081966;28;19927;-72
2023/04/01 02:09:56;;;;;;;;;;;19.50;99.90;;;;;;5086139;28;20364;-77
2023/04/01 02:12:24;;;;;;;;;;;19.50;99.90;;;;;;5097630;28;19912;-73
2023/04/01 02:14:53;;;;;;;;;;;19.60;99.90;;;;;;5096332;28;19912;-77
2023/04/01 02:17:22;;;;;;;;;;;19.70;99.90;;;;;;5097845;28;19977;-76
2023/04/01 02:19:57;;;;;;;;;;;19.60;99.90;;;;;;5078543;28;19965;-72
2023/04/01 02:22:26;;;;;;;;;;;19.70;99.90;;;;;;5097905;28;19915;-72
2023/04/01 02:24:54;;;;;;;;;;;19.60;99.90;;;;;;5096881;28;19908;-75
2023/04/01 02:27:26;;;;;;;;;;;19.50;99.90;;;;;;5078303;28;20345;-71
2023/04/01 02:29:53;;;;;;;;;;;19.30;99.90;;;;;;5076788;28;19950;-73
2023/04/01 02:32:20;;;;;;;;;;;19.20;99.90;;;;;;5078053;28;19919;-73
2023/04/01 02:34:47;;;;;;;;;;;19.10;99.90;;;;;;5081036;28;20018;-70
2023/04/01 02:37:14;;;;;;;;;;;19.00;99.90;;;;;;5077541;28;20261;-69
2023/04/01 02:39:42;;;;;;;;;;;19.10;99.90;;;;;;5058061;28;19919;-71
2023/04/01 02:42:09;;;;;;;;;;;19.10;99.90;;;;;;5077549;28;19915;-69
2023/04/01 02:44:36;;;;;;;;;;;19.00;99.90;;;;;;5083932;28;19912;-74
2023/04/01 02:47:03;;;;;;;;;;;19.00;99.90;;;;;;5075953;28;20441;-71
2023/04/01 02:49:29;;;;;;;;;;;18.70;99.90;;;;;;5078127;28;19908;-72
2023/04/01 02:51:56;;;;;;;;;;;18.50;99.90;;;;;;5081768;28;19918;-70
2023/04/01 02:54:22;;;;;;;;;;;18.40;99.90;;;;;;5098384;28;19907;-70
2023/04/01 02:56:49;;;;;;;;;;;18.50;99.90;;;;;;5096915;28;20075;-73
2023/04/01 02:59:16;;;;;;;;;;;18.40;99.90;;;;;;5083534;28;20531;-73
2023/04/01 03:01:43;;;;;;;;;;;18.40;99.90;;;;;;5062675;28;19990;-68
2023/04/01 03:04:09;;;;;;;;;;;18.30;99.90;;;;;;5093457;28;19946;-68
2023/04/01 03:06:36;;;;;;;;;;;18.30;99.90;;;;;;5083561;28;20420;-74
2023/04/01 03:09:03;;;;;;;;;;;18.50;99.90;;;;;;5099065;28;19915;-69
2023/04/01 03:11:30;;;;;;;;;;;18.60;99.90;;;;;;5100226;28;19908;-68
2023/04/01 03:13:56;;;;;;;;;;;18.70;99.90;;;;;;5090623;28;19914;-81
2023/04/01 03:16:23;;;;;;;;;;;18.70;99.90;;;;;;5101510;28;19915;-72
2023/04/01 03:18:52;;;;;;;;;;;18.90;99.90;;;;;;5099499;28;19912;-69
2023/04/01 03:21:20;;;;;;;;;;;18.90;99.90;;;;;;5086383;28;19912;-73
2023/04/01 03:23:47;;;;;;;;;;;19.00;99.90;;;;;;5086428;28;20725;-72
2023/04/01 03:26:14;;;;;;;;;;;19.10;99.90;;;;;;5080634;28;20037;-68
2023/04/01 03:28:41;;;;;;;;;;;19.20;99.90;;;;;;5080606;28;19909;-72
2023/04/01 03:31:07;;;;;;;;;;;19.10;99.90;;;;;;5094100;28;19912;-70
2023/04/01 03:33:34;;;;;;;;;;;19.10;99.90;;;;;;5099288;28;20007;-67
2023/04/01 03:36:01;;;;;;;;;;;19.00;99.90;;;;;;5099860;28;19915;-69
2023/04/01 03:38:27;;;;;;;;;;;18.90;99.90;;;;;;5100879;28;19982;-71
2023/04/01 03:40:54;;;;;;;;;;;18.70;99.90;;;;;;5096269;28;20424;-74
2023/04/01 03:43:22;;;;;;;;;;;18.70;99.90;;;;;;5099931;28;20241;-76
2023/04/01 03:45:49;;;;;;;;;;;18.70;99.90;;;;;;5087308;28;19912;-69
2023/04/01 03:48:16;;;;;;;;;;;18.60;99.90;;;;;;5079907;28;19916;-68
2023/04/01 03:50:43;;;;;;;;;;;18.70;99.90;;;;;;5080430;28;19908;-72
2023/04/01 03:53:09;;;;;;;;;;;18.70;99.90;;;;;;5098360;28;20417;-72
2023/04/01 03:55:37;;;;;;;;;;;18.70;99.90;;;;;;5100377;28;19918;-74
2023/04/01 03:58:06;;;;;;;;;;;18.90;99.90;;;;;;5099123;28;19907;-67
2023/04/01 04:00:33;;;;;;;;;;;18.90;99.90;;;;;;5100852;28;20357;-71
2023/04/01 04:03:00;;;;;;;;;;;18.90;99.90;;;;;;5098350;28;19908;-68
2023/04/01 04:05:27;;;;;;;;;;;19.00;99.90;;;;;;5092150;28;20015;-74
2023/04/01 04:07:54;;;;;;;;;;;19.00;99.90;;;;;;5084219;28;19929;-70
2023/04/01 04:10:22;;;;;;;;;;;19.20;99.90;;;;;;5099383;28;19923;-68
2023/04/01 04:12:49;;;;;;;;;;;19.30;99.90;;;;;;5100727;28;19908;-67
2023/04/01 04:15:16;;;;;;;;;;;19.40;99.90;;;;;;5081459;28;19912;-70
2023/04/01 04:17:44;;;;;;;;;;;19.40;99.90;;;;;;5090483;28;20053;-70
2023/04/01 04:20:11;;;;;;;;;;;19.30;99.90;;;;;;5088955;28;19950;-67
2023/04/01 04:22:38;;;;;;;;;;;19.20;99.90;;;;;;5081386;28;19908;-70
2023/04/01 04:25:05;;;;;;;;;;;18.90;99.90;;;;;;5098043;28;20390;-73
2023/04/01 04:27:31;;;;;;;;;;;18.70;99.90;;;;;;5081189;28;20030;-76
2023/04/01 04:29:58;;;;;;;;;;;18.50;99.90;;;;;;5083294;28;19920;-69
2023/04/01 04:32:25;;;;;;;;;;;18.40;99.90;;;;;;5079756;28;20003;-80
2023/04/01 04:34:51;;;;;;;;;;;18.30;99.90;;;;;;5098326;28;19931;-70
2023/04/01 04:37:18;;;;;;;;;;;18.30;99.90;;;;;;5081968;28;19912;-75
2023/04/01 04:39:44;;;;;;;;;;;18.30;99.90;;;;;;5079897;28;19932;-71
2023/04/01 04:42:11;;;;;;;;;;;18.30;99.90;;;;;;5080626;28;20008;-76
2023/04/01 04:44:39;;;;;;;;;;;18.30;99.90;;;;;;5082591;28;20388;-84
2023/04/01 04:47:05;;;;;;;;;;;18.30;99.90;;;;;;5082802;28;19943;-69
2023/04/01 04:49:32;;;;;;;;;;;18.20;99.90;;;;;;5086856;28;19996;-73
2023/04/01 04:51:59;;;;;;;;;;;18.30;99.90;;;;;;5089286;28;19912;-74
2023/04/01 04:54:25;;;;;;;;;;;18.20;99.90;;;;;;5098728;28;19922;-82
2023/04/01 04:56:53;;;;;;;;;;;18.20;99.90;;;;;;5100162;28;19919;-75
2023/04/01 04:59:19;;;;;;;;;;;18.20;99.90;;;;;;5096312;28;19980;-82
2023/04/01 05:01:46;;;;;;;;;;;18.10;99.90;;;;;;5100404;28;19908;-73
2023/04/01 05:04:13;;;;;;;;;;;18.10;99.90;;;;;;5086981;28;19912;-69
2023/04/01 05:06:39;;;;;;;;;;;18.20;99.90;;;;;;5088868;28;20015;-66
2023/04/01 05:09:06;;;;;;;;;;;18.20;99.90;;;;;;5096709;28;20006;-67
2023/04/01 05:11:33;;;;;;;;;;;18.20;99.90;;;;;;5094827;28;20050;-81
2023/04/01 05:13:59;;;;;;;;;;;18.20;99.90;;;;;;5098595;28;19995;-68
2023/04/01 05:16:26;;;;;;;;;;;18.30;99.90;;;;;;5098490;28;19943;-73
2023/04/01 05:18:54;;;;;;;;;;;18.50;99.90;;;;;;5097443;28;19922;-80
2023/04/01 05:21:23;;;;;;;;;;;18.70;99.90;;;;;;5106944;28;19907;-67
2023/04/01 05:23:50;;;;;;;;;;;19.00;99.90;;;;;;5109907;28;19915;-68
2023/04/01 05:26:17;;;;;;;;;;;19.30;99.90;;;;;;5107339;28;19929;-68
2023/04/01 05:28:43;;;;;;;;;;;19.60;99.90;;;;;;5103258;28;20329;-71
2023/04/01 05:31:10;;;;;;;;;;;19.90;99.90;;;;;;5095541;28;19912;-66
2023/04/01 05:33:37;;;;;;;;;;;20.00;99.90;;;;;;5099556;28;19911;-64
2023/04/01 05:36:08;;;;;;;;;;;20.20;99.90;;;;;;5100487;28;20049;-68
2023/04/01 05:38:34;;;;;;;;;;;20.80;99.90;;;;;;5099335;28;19978;-65
2023/04/01 05:41:02;;;;;;;;;;;22.20;99.90;;;;;;5101206;28;20092;-64
2023/04/01 05:43:30;;;;;;;;;;;23.90;99.00;;;;;;5097922;28;20663;-77
2023/04/01 05:45:59;;;;;;;;;;;25.10;96.00;;;;;;5100404;28;19983;-73
2023/04/01 05:48:25;;;;;;;;;;;26.20;94.60;;;;;;5098283;28;19915;-67
2023/04/01 05:50:52;;;;;;;;;;;26.60;91.60;;;;;;5085917;28;19916;-66
2023/04/01 05:53:20;;;;;;;;;;;26.70;91.20;;;;;;5079391;28;19916;-75
2023/04/01 05:55:56;;;;;;;;;;;26.80;90.30;;;;;;5081416;28;19911;-79
2023/04/01 05:58:24;;;;;;;;;;;26.40;89.90;;;;;;5085549;28;19935;-67
2023/04/01 06:00:53;;;;;;;;;;;25.80;91.10;;;;;;5081784;28;19998;-78
2023/04/01 06:03:27;;;;;;;;;;;25.10;91.00;;;;;;5095796;28;19915;-69
2023/04/01 06:05:55;;;;;;;;;;;24.40;91.80;;;;;;5086105;28;19918;-73
2023/04/01 06:08:22;;;;;;;;;;;23.80;93.20;;;;;;5095124;28;19920;-72
2023/04/01 06:11:21;;;;;;;;;;;23.40;93.70;;;;;;5097458;28;20337;-76
2023/04/01 06:14:05;;;;;;;;;;;22.90;93.90;;;;;;5096834;28;20276;-69
2023/04/01 06:16:50;;;;;;;;;;;22.40;95.30;;;;;;5091826;28;19951;-67
2023/04/01 06:19:29;;;;;;;;;;;21.90;95.20;;;;;;5086005;28;20375;-67
2023/04/01 06:22:02;;;;;;;;;;;21.60;95.50;;;;;;5092311;28;19912;-65
2023/04/01 06:24:33;;;;;;;;;;;21.30;96.00;;;;;;5094885;28;20326;-73
2023/04/01 06:27:05;;;;;;;;;;;21.10;96.60;;;;;;5097413;28;19915;-67
2023/04/01 06:29:40;;;;;;;;;;;21.00;97.20;;;;;;5089219;28;19912;-72
2023/04/01 06:32:18;;;;;;;;;;;20.80;98.00;;;;;;5094003;28;19943;-76
2023/04/01 06:34:57;;;;;;;;;;;20.80;98.20;;;;;;5082923;28;20317;-71
2023/04/01 06:37:24;;;;;;;;;;;20.70;98.70;;;;;;5098642;28;19920;-67
2023/04/01 06:40:09;;;;;;;;;;;20.70;98.20;;;;;;5100627;28;19930;-64
2023/04/01 06:42:39;;;;;;;;;;;20.80;98.50;;;;;;5091460;28;20611;-68
2023/04/01 06:45:11;;;;;;;;;;;21.10;97.60;;;;;;5100261;28;19916;-76
2023/04/01 06:48:02;;;;;;;;;;;21.30;97.50;;;;;;5097249;28;20978;-69
2023/04/01 06:50:41;;;;;;;;;;;21.80;96.80;;;;;;5097701;28;19991;-75
2023/04/01 06:53:46;;;;;;;;;;;22.50;95.70;;;;;;5100736;28;19920;-68
2023/04/01 06:56:18;;;;;;;;;;;22.80;93.90;;;;;;5038009;28;19913;-78
2023/04/01 06:59:09;;;;;;;;;;;22.60;94.10;;;;;;5036101;28;20003;-77
2023/04/01 07:01:38;;;;;;;;;;;22.40;94.20;;;;;;5071508;28;19918;-68
2023/04/01 07:04:20;;;;;;;;;;;22.20;94.60;;;;;;5101402;28;19945;-74
2023/04/01 07:06:50;;;;;;;;;;;22.00;94.50;;;;;;5101803;28;20352;-67
2023/04/01 07:09:21;;;;;;;;;;;21.60;94.70;;;;;;5101856;28;19934;-75
2023/04/01 07:11:48;;;;;;;;;;;21.30;94.90;;;;;;5101203;28;20366;-73
2023/04/01 07:14:22;;;;;;;;;;;21.10;95.50;;;;;;5094383;28;20292;-76
2023/04/01 07:16:56;;;;;;;;;;;20.90;95.90;;;;;;5100451;28;19919;-66
2023/04/01 07:19:34;;;;;;;;;;;20.70;96.40;;;;;;5100648;28;19908;-71
2023/04/01 07:22:04;;;;;;;;;;;20.60;96.60;;;;;;5092813;28;20751;-66
2023/04/01 07:24:35;;;;;;;;;;;20.50;97.30;;;;;;5094002;28;19915;-73
2023/04/01 07:27:01;;;;;;;;;;;20.40;97.40;;;;;;5101360;28;19916;-72
2023/04/01 07:29:28;;;;;;;;;;;20.30;97.30;;;;;;5099272;28;19916;-67
2023/04/01 07:31:55;;;;;;;;;;;20.20;97.10;;;;;;5102866;28;19913;-71
2023/04/01 07:34:31;;;;;;;;;;;20.00;97.20;;;;;;5102269;28;19912;-66
2023/04/01 07:37:01;;;;;;;;;;;19.90;97.30;;;;;;5101934;28;19935;-70
2023/04/01 07:39:35;;;;;;;;;;;19.80;97.50;;;;;;5100498;28;19920;-67
2023/04/01 07:42:12;;;;;;;;;;;19.70;97.60;;;;;;5101419;28;20345;-68
2023/04/01 07:44:45;;;;;;;;;;;19.60;98.10;;;;;;5098776;28;19914;-71
2023/04/01 07:47:35;;;;;;;;;;;19.60;98.50;;;;;;5101355;28;19919;-70
2023/04/01 07:50:14;;;;;;;;;;;19.50;98.40;;;;;;5078646;28;19912;-65
2023/04/01 07:52:47;;;;;;;;;;;19.40;98.90;;;;;;5079238;28;19904;-68
2023/04/01 07:55:20;;;;;;;;;;;19.40;99.20;;;;;;5098454;28;20494;-73
2023/04/01 07:57:56;;;;;;;;;;;19.30;99.40;;;;;;5098925;28;19920;-79
2023/04/01 08:00:25;;;;;;;;;;;19.30;99.70;;;;;;5102065;28;20596;-65
2023/04/01 08:03:06;;;;;;;;;;;19.20;99.50;;;;;;5099317;28;19995;-69
2023/04/01 08:06:07;;;;;;;;;;;19.20;99.30;;;;;;5097586;28;19912;-74
2023/04/01 08:08:53;;;;;;;;;;;19.20;99.10;;;;;;5081431;28;19949;-67
2023/04/01 08:11:29;;;;;;;;;;;19.20;99.20;;;;;;5103185;28;19926;-85
2023/04/01 08:14:14;;;;;;;;;;;19.20;99.30;;;;;;5094499;28;20398;-71
2023/04/01 08:16:58;;;;;;;;;;;19.10;99.30;;;;;;5081870;28;20263;-68
2023/04/01 08:19:30;;;;;;;;;;;19.20;99.50;;;;;;5090995;28;19923;-71
2023/04/01 08:22:04;;;;;;;;;;;19.10;99.50;;;;;;5082116;28;19911;-79
2023/04/01 08:24:40;;;;;;;;;;;19.10;99.70;;;;;;5094415;28;19912;-71
2023/04/01 08:27:12;;;;;;;;;;;19.10;99.90;;;;;;5100075;28;20064;-73
2023/04/01 08:29:46;;;;;;;;;;;19.10;99.90;;;;;;5098425;28;20380;-65
2023/04/01 08:32:26;;;;;;;;;;;19.10;99.80;;;;;;5083765;28;19996;-65
2023/04/01 08:35:07;;;;;;;;;;;19.00;99.50;;;;;;5059450;28;19908;-73
2023/04/01 08:37:41;;;;;;;;;;;19.00;99.90;;;;;;5080149;28;19915;-73
2023/04/01 08:40:36;;;;;;;;;;;19.00;99.70;;;;;;5074860;28;19924;-77
2023/04/01 08:43:22;;;;;;;;;;;19.00;99.80;;;;;;5081203;28;19912;-73
2023/04/01 08:45:54;;;;;;;;;;;18.90;99.70;;;;;;5094098;28;19919;-73
2023/04/01 08:48:59;;;;;;;;;;;18.90;99.80;;;;;;5080310;28;20265;-73
2023/04/01 08:51:38;;;;;;;;;;;18.90;99.90;;;;;;5055353;28;19908;-66
2023/04/01 08:54:19;;;;;;;;;;;18.90;99.90;;;;;;5054490;28;20416;-76
2023/04/01 08:57:07;;;;;;;;;;;18.80;99.90;;;;;;5069978;28;19915;-72
2023/04/01 08:59:36;;;;;;;;;;;18.80;99.90;;;;;;5089115;28;19985;-67
2023/04/01 09:02:21;;;;;;;;;;;18.80;99.90;;;;;;5095866;28;20598;-69
2023/04/01 09:04:54;;;;;;;;;;;18.80;99.90;;;;;;5096919;28;19915;-69
2023/04/01 09:07:33;;;;;;;;;;;18.80;99.90;;;;;;5095214;28;19964;-72
2023/04/01 09:10:03;;;;;;;;;;;18.80;99.90;;;;;;5092787;28;20626;-78
2023/04/01 09:12:45;;;;;;;;;;;18.80;99.90;;;;;;5099810;28;20261;-66
2023/04/01 09:15:35;;;;;;;;;;;18.80;99.90;;;;;;5085045;28;19912;-71
2023/04/01 09:18:16;;;;;;;;;;;18.80;99.90;;;;;;5073432;28;19908;-70
2023/04/01 09:20:47;;;;;;;;;;;18.80;99.90;;;;;;5084496;28;19908;-65
2023/04/01 09:23:32;;;;;;;;;;;18.80;99.90;;;;;;5079419;28;19912;-63
2023/04/01 09:26:11;;;;;;;;;;;18.80;99.90;;;;;;5081702;28;19908;-63
2023/04/01 09:28:43;;;;;;;;;;;18.80;99.90;;;;;;5099122;28;19924;-78
2023/04/01 09:31:26;;;;;;;;;;;18.80;99.90;;;;;;5088805;28;19912;-65
2023/04/01 09:34:05;;;;;;;;;;;18.80;99.90;;;;;;5075446;28;20022;-64
2023/04/01 09:37:07;;;;;;;;;;;18.80;99.90;;;;;;5079091;28;19961;-70
2023/04/01 09:39:38;;;;;;;;;;;18.80;99.90;;;;;;5016922;28;19963;-78
2023/04/01 09:42:14;;;;;;;;;;;18.70;99.90;;;;;;5056455;28;19918;-67
2023/04/01 09:45:01;;;;;;;;;;;18.70;99.90;;;;;;5076038;28;19912;-65
2023/04/01 09:47:46;;;;;;;;;;;18.70;99.90;;;;;;5071500;28;19920;-66
2023/04/01 09:50:31;;;;;;;;;;;18.70;99.90;;;;;;5077159;28;19912;-66
2023/04/01 09:52:57;;;;;;;;;;;18.70;99.90;;;;;;5070611;28;19912;-70
2023/04/01 09:55:43;;;;;;;;;;;18.70;99.90;;;;;;5059267;28;19908;-64
2023/04/01 09:58:34;;;;;;;;;;;18.70;99.90;;;;;;5058933;28;20012;-73
2023/04/01 10:01:01;;;;;;;;;;;18.70;99.90;;;;;;5072081;28;19919;-71
2023/04/01 10:03:45;;;;;;;;;;;18.70;99.90;;;;;;5077013;28;20011;-69
2023/04/01 10:06:30;;;;;;;;;;;18.60;99.90;;;;;;5076608;28;19991;-72
2023/04/01 10:09:18;;;;;;;;;;;18.60;99.90;;;;;;5055976;28;19959;-68
2023/04/01 10:11:54;;;;;;;;;;;18.70;99.90;;;;;;5058556;28;19908;-70
2023/04/01 10:14:21;;;;;;;;;;;18.60;99.90;;;;;;5074255;28;19908;-67
2023/04/01 10:16:59;;;;;;;;;;;18.60;99.90;;;;;;5063802;28;19912;-71
2023/04/01 10:19:40;;;;;;;;;;;18.60;99.90;;;;;;5065804;28;19918;-73
2023/04/01 10:22:25;;;;;;;;;;;18.60;99.90;;;;;;5062262;28;19913;-73
2023/04/01 10:24:58;;;;;;;;;;;18.50;99.90;;;;;;5057013;28;19916;-75
2023/04/01 10:27:27;;;;;;;;;;;18.50;99.90;;;;;;5075941;28;19932;-69
2023/04/01 10:29:57;;;;;;;;;;;18.40;99.90;;;;;;5075964;28;20272;-68
2023/04/01 10:32:23;;;;;;;;;;;18.40;99.90;;;;;;5062412;28;19973;-67
2023/04/01 10:34:56;;;;;;;;;;;18.40;99.90;;;;;;5077321;28;19998;-69
2023/04/01 10:37:35;;;;;;;;;;;18.30;99.90;;;;;;5057262;28;19909;-69
2023/04/01 10:40:02;;;;;;;;;;;18.20;99.90;;;;;;5065936;28;19920;-66
2023/04/01 10:42:54;;;;;;;;;;;18.20;99.90;;;;;;5078243;28;20060;-67
2023/04/01 10:45:31;;;;;;;;;;;18.30;99.90;;;;;;5080089;28;20311;-73
2023/04/01 10:48:06;;;;;;;;;;;18.20;99.90;;;;;;5085977;28;20396;-75
2023/04/01 10:50:54;;;;;;;;;;;18.20;99.90;;;;;;5098329;28;19919;-65
2023/04/01 10:53:39;;;;;;;;;;;18.10;99.90;;;;;;5096108;28;20430;-72
2023/04/01 10:56:18;;;;;;;;;;;18.00;99.90;;;;;;5086625;28;19958;-67
2023/04/01 10:58:50;;;;;;;;;;;18.00;99.90;;;;;;5077546;28;19908;-69
2023/04/01 11:01:35;;;;;;;;;;;18.00;99.90;;;;;;5075597;28;20323;-64
2023/04/01 11:04:20;;;;;;;;;;;18.00;99.90;;;;;;5088546;28;19919;-67
2023/04/01 11:06:55;;;;;;;;;;;17.90;99.90;;;;;;5080382;28;19920;-65
2023/04/01 11:09:28;;;;;;;;;;;17.80;99.90;;;;;;5086177;28;19958;-62
2023/04/01 11:12:07;;;;;;;;;;;17.80;99.90;;;;;;5096225;28;19969;-69
2023/04/01 11:14:54;;;;;;;;;;;17.80;99.90;;;;;;5090338;28;19916;-66
2023/04/01 11:17:38;;;;;;;;;;;17.80;99.90;;;;;;5078669;28;19912;-71
2023/04/01 11:20:05;;;;;;;;;;;17.70;99.90;;;;;;5079492;28;20015;-67
2023/04/01 11:22:31;;;;;;;;;;;17.70;99.90;;;;;;5086112;28;19955;-70
2023/04/01 11:25:08;;;;;;;;;;;17.70;99.90;;;;;;5082094;28;19912;-70
2023/04/01 11:27:46;;;;;;;;;;;17.70;99.90;;;;;;5094089;28;19920;-72
2023/04/01 11:30:19;;;;;;;;;;;17.80;99.90;;;;;;5098951;28;20018;-71
2023/04/01 11:32:50;;;;;;;;;;;17.70;99.90;;;;;;5069805;28;19930;-67
2023/04/01 11:35:34;;;;;;;;;;;17.80;99.90;;;;;;5098948;28;19915;-71
2023/04/01 11:38:27;;;;;;;;;;;17.80;99.90;;;;;;5088004;28;19912;-67
2023/04/01 11:40:56;;;;;;;;;;;17.70;99.90;;;;;;5079516;28;20351;-67
2023/04/01 11:43:37;;;;;;;;;;;17.70;99.90;;;;;;5098615;28;19922;-70
2023/04/01 11:46:11;;;;;;;;;;;17.70;99.90;;;;;;5091057;28;19933;-66
2023/04/01 11:48:38;;;;;;;;;;;17.70;99.90;;;;;;5080830;28;20010;-71
2023/04/01 11:51:16;;;;;;;;;;;17.60;99.90;;;;;;5081223;28;19951;-67
2023/04/01 11:54:04;;;;;;;;;;;17.50;99.90;;;;;;5081274;28;19919;-70
2023/04/01 11:56:42;;;;;;;;;;;17.60;99.90;;;;;;5091695;28;19926;-66
2023/04/01 11:59:29;;;;;;;;;;;17.50;99.90;;;;;;5087617;28;19911;-68
2023/04/01 12:01:59;;;;;;;;;;;17.40;99.90;;;;;;5102245;28;19912;-66
2023/04/01 12:04:44;;;;;;;;;;;17.40;99.90;;;;;;5099959;28;20582;-66
2023/04/01 12:07:29;;;;;;;;;;;17.40;99.90;;;;;;5098189;28;20003;-74
2023/04/01 12:09:56;;;;;;;;;;;17.40;99.90;;;;;;5088177;28;19934;-65
2023/04/01 12:12:42;;;;;;;;;;;17.50;99.90;;;;;;5098111;28;19908;-69
2023/04/01 12:15:18;;;;;;;;;;;17.50;99.90;;;;;;5100526;28;20320;-68
2023/04/01 12:17:50;;;;;;;;;;;17.70;99.90;;;;;;5098568;28;19912;-74
2023/04/01 12:20:46;;;;;;;;;;;17.70;99.90;;;;;;5097109;28;19911;-76
2023/04/01 12:23:39;;;;;;;;;;;17.70;99.90;;;;;;5082460;28;19988;-67
2023/04/01 12:26:30;;;;;;;;;;;17.60;99.90;;;;;;5084597;28;19992;-76
2023/04/01 12:29:09;;;;;;;;;;;17.60;99.90;;;;;;5101344;28;19916;-67
2023/04/01 12:31:39;;;;;;;;;;;17.60;99.90;;;;;;5097173;28;20380;-66
2023/04/01 12:34:13;;;;;;;;;;;17.50;99.90;;;;;;5101280;28;20084;-71
2023/04/01 12:36:49;;;;;;;;;;;17.50;99.90;;;;;;5081553;28;20324;-68
2023/04/01 12:39:34;;;;;;;;;;;17.40;99.90;;;;;;5099204;28;19916;-65
2023/04/01 12:42:13;;;;;;;;;;;17.30;99.90;;;;;;5101019;28;20364;-64
2023/04/01 12:44:49;;;;;;;;;;;17.30;99.90;;;;;;5097104;28;19908;-70
2023/04/01 12:47:18;;;;;;;;;;;17.20;99.90;;;;;;5099348;28;20376;-67
2023/04/01 12:49:57;;;;;;;;;;;17.10;99.90;;;;;;5099537;28;19939;-66
2023/04/01 12:52:42;;;;;;;;;;;17.10;99.90;;;;;;5085022;28;20319;-66
2023/04/01 12:55:26;;;;;;;;;;;17.10;99.90;;;;;;5080343;28;19915;-67
2023/04/01 12:58:11;;;;;;;;;;;17.20;99.90;;;;;;5059855;28;20265;-63
2023/04/01 13:00:37;;;;;;;;;;;17.30;99.90;;;;;;5076939;28;20728;-69
2023/04/01 13:03:07;;;;;;;;;;;17.30;99.90;;;;;;5080308;28;19908;-74
2023/04/01 13:05:36;;;;;;;;;;;17.30;99.90;;;;;;5088814;28;19912;-66
2023/04/01 13:08:03;;;;;;;;;;;17.20;99.90;;;;;;5100265;28;19923;-67
2023/04/01 13:10:35;;;;;;;;;;;17.20;99.90;;;;;;5098773;28;20000;-64
2023/04/01 13:13:02;;;;;;;;;;;17.20;99.90;;;;;;5095950;28;19919;-64
2023/04/01 13:15:30;;;;;;;;;;;17.30;99.90;;;;;;5078232;28;19914;-66
2023/04/01 13:17:56;;;;;;;;;;;17.30;99.90;;;;;;5077427;28;20067;-64
2023/04/01 13:20:31;;;;;;;;;;;17.40;99.90;;;;;;5078878;28;19961;-65
2023/04/01 13:23:10;;;;;;;;;;;17.40;99.90;;;;;;5091255;28;19916;-68
2023/04/01 13:25:37;;;;;;;;;;;17.40;99.90;;;;;;5077421;28;20006;-65
2023/04/01 13:28:15;;;;;;;;;;;17.50;99.90;;;;;;5078631;28;19961;-63
2023/04/01 13:30:42;;;;;;;;;;;17.40;99.90;;;;;;5076127;28;19908;-66
2023/04/01 13:33:11;;;;;;;;;;;17.50;99.90;;;;;;5079586;28;19966;-70
2023/04/01 13:35:41;;;;;;;;;;;17.50;99.90;;;;;;5076923;28;20158;-66
2023/04/01 13:38:31;;;;;;;;;;;17.60;99.90;;;;;;5079448;28;19938;-74
2023/04/01 13:41:00;;;;;;;;;;;17.70;99.90;;;;;;5079883;28;19963;-68
2023/04/01 13:43:33;;;;;;;;;;;17.60;99.90;;;;;;5098653;28;20372;-69
2023/04/01 13:46:03;;;;;;;;;;;17.60;99.90;;;;;;5097984;28;19908;-73
2023/04/01 13:48:48;;;;;;;;;;;17.50;99.90;;;;;;5098244;28;19962;-64
2023/04/01 13:51:19;;;;;;;;;;;17.50;99.90;;;;;;5080069;28;19912;-67
2023/04/01 13:54:04;;;;;;;;;;;17.50;99.90;;;;;;5075966;28;19918;-66
2023/04/01 13:56:48;;;;;;;;;;;17.50;99.90;;;;;;5078244;28;20603;-64
2023/04/01 13:59:28;;;;;;;;;;;17.50;99.90;;;;;;5079337;28;19908;-68
2023/04/01 14:01:54;;;;;;;;;;;17.40;99.90;;;;;;5089360;28;19919;-67
2023/04/01 14:04:24;;;;;;;;;;;17.40;99.90;;;;;;5099475;28;20527;-67
2023/04/01 14:06:57;;;;;;;;;;;17.40;99.90;;;;;;5097579;28;19916;-73
2023/04/01 14:09:50;;;;;;;;;;;17.40;99.90;;;;;;5099191;28;20512;-69
2023/04/01 14:12:20;;;;;;;;;;;17.30;99.90;;;;;;5074471;28;19947;-67
2023/04/01 14:15:04;;;;;;;;;;;17.30;99.90;;;;;;5098480;28;20719;-68
2023/04/01 14:17:38;;;;;;;;;;;17.30;99.90;;;;;;5098402;28;19919;-68
2023/04/01 14:20:16;;;;;;;;;;;17.30;99.90;;;;;;5092515;28;19923;-68
2023/04/01 14:22:52;;;;;;;;;;;17.30;99.90;;;;;;5083849;28;20268;-69
2023/04/01 14:25:18;;;;;;;;;;;17.20;99.90;;;;;;5078842;28;19991;-68
2023/04/01 14:27:48;;;;;;;;;;;17.20;99.90;;;;;;5078921;28;19951;-67
2023/04/01 14:30:33;;;;;;;;;;;17.20;99.90;;;;;;5097803;28;19958;-70
2023/04/01 14:33:12;;;;;;;;;;;17.00;99.90;;;;;;5098326;28;19930;-68
2023/04/01 14:35:46;;;;;;;;;;;16.90;99.90;;;;;;5097960;28;19911;-68
2023/04/01 14:38:24;;;;;;;;;;;16.70;99.90;;;;;;5088868;28;19912;-84
2023/04/01 14:41:09;;;;;;;;;;;16.60;99.90;;;;;;5081796;28;19927;-78
2023/04/01 14:43:44;;;;;;;;;;;16.60;99.90;;;;;;5091042;28;20006;-67
2023/04/01 14:46:29;;;;;;;;;;;16.50;99.90;;;;;;5086474;28;19912;-76
2023/04/01 14:49:05;;;;;;;;;;;16.50;99.90;;;;;;5076045;28;19962;-72
2023/04/01 14:51:33;;;;;;;;;;;16.50;99.90;;;;;;5088397;28;20026;-77